sensor_id;sensor_type;location;lat;lon;timestamp;P1;durP1;ratioP1;P2;durP2;ratioP2
37701;SDS011;23548;51.196;6.838;2023-05-06T00:00:56;180.60;;;38.60;;
37701;SDS011;23548;51.196;6.838;2023-05-06T00:03:25;209.80;;;42.42;;
37701;SDS011;23548;51.196;6.838;2023-05-06T00:05:56;197.20;;;43.65;;
37701;SDS011;23548;51.196;6.838;2023-05-06T00:08:29;245.68;;;43.88;;
37701;SDS011;23548;51.196;6.838;2023-05-06T00:11:06;265.65;;;44.53;;
37701;SDS011;23548;51.196;6.838;2023-05-06T00:13:40;148.65;;;38.78;;
37701;SDS011;23548;51.196;6.838;2023-05-06T00:16:09;214.73;;;43.53;;
37701;SDS011;23548;51.196;6.838;2023-05-06T00:18:36;187.95;;;42.78;;
37701;SDS011;23548;51.196;6.838;2023-05-06T00:21:07;378.27;;;51.22;;
37701;SDS011;23548;51.196;6.838;2023-05-06T00:23:37;373.15;;;51.35;;
37701;SDS011;23548;51.196;6.838;2023-05-06T00:26:06;262.00;;;46.88;;
37701;SDS011;23548;51.196;6.838;2023-05-06T00:28:34;369.70;;;53.95;;
37701;SDS011;23548;51.196;6.838;2023-05-06T00:31:08;516.80;;;60.42;;
37701;SDS011;23548;51.196;6.838;2023-05-06T00:33:37;442.20;;;57.63;;
37701;SDS011;23548;51.196;6.838;2023-05-06T00:36:07;222.32;;;49.03;;
37701;SDS011;23548;51.196;6.838;2023-05-06T00:38:39;467.80;;;59.55;;
37701;SDS011;23548;51.196;6.838;2023-05-06T00:41:07;464.25;;;58.78;;
37701;SDS011;23548;51.196;6.838;2023-05-06T00:43:35;348.00;;;54.08;;
37701;SDS011;23548;51.196;6.838;2023-05-06T00:46:01;600.70;;;67.38;;
37701;SDS011;23548;51.196;6.838;2023-05-06T00:48:27;194.77;;;51.47;;
37701;SDS011;23548;51.196;6.838;2023-05-06T00:50:53;428.52;;;57.58;;
37701;SDS011;23548;51.196;6.838;2023-05-06T00:53:19;540.17;;;60.78;;
37701;SDS011;23548;51.196;6.838;2023-05-06T00:55:46;463.90;;;57.15;;
37701;SDS011;23548;51.196;6.838;2023-05-06T00:58:13;329.60;;;53.25;;
37701;SDS011;23548;51.196;6.838;2023-05-06T01:00:39;587.50;;;62.50;;
37701;SDS011;23548;51.196;6.838;2023-05-06T01:03:06;310.95;;;53.50;;
37701;SDS011;23548;51.196;6.838;2023-05-06T01:05:34;310.27;;;50.88;;
37701;SDS011;23548;51.196;6.838;2023-05-06T01:08:16;369.52;;;53.17;;
37701;SDS011;23548;51.196;6.838;2023-05-06T01:11:12;352.80;;;57.10;;
37701;SDS011;23548;51.196;6.838;2023-05-06T01:13:51;541.38;;;59.17;;
37701;SDS011;23548;51.196;6.838;2023-05-06T01:16:25;232.85;;;49.65;;
37701;SDS011;23548;51.196;6.838;2023-05-06T01:18:55;309.38;;;51.80;;
37701;SDS011;23548;51.196;6.838;2023-05-06T01:21:42;318.55;;;50.85;;
37701;SDS011;23548;51.196;6.838;2023-05-06T01:24:12;400.98;;;55.13;;
37701;SDS011;23548;51.196;6.838;2023-05-06T01:26:37;317.73;;;50.83;;
37701;SDS011;23548;51.196;6.838;2023-05-06T01:29:05;330.73;;;51.97;;
37701;SDS011;23548;51.196;6.838;2023-05-06T01:31:31;236.52;;;49.38;;
37701;SDS011;23548;51.196;6.838;2023-05-06T01:34:09;120.70;;;43.03;;
37701;SDS011;23548;51.196;6.838;2023-05-06T01:36:51;178.25;;;47.88;;
37701;SDS011;23548;51.196;6.838;2023-05-06T01:39:24;126.70;;;44.83;;
37701;SDS011;23548;51.196;6.838;2023-05-06T01:41:55;161.50;;;44.47;;
37701;SDS011;23548;51.196;6.838;2023-05-06T01:44:23;172.38;;;47.33;;
37701;SDS011;23548;51.196;6.838;2023-05-06T01:46:53;247.00;;;48.72;;
37701;SDS011;23548;51.196;6.838;2023-05-06T01:49:20;204.75;;;46.72;;
37701;SDS011;23548;51.196;6.838;2023-05-06T01:51:50;182.15;;;46.58;;
37701;SDS011;23548;51.196;6.838;2023-05-06T01:54:17;203.63;;;44.90;;
37701;SDS011;23548;51.196;6.838;2023-05-06T01:56:43;188.75;;;46.05;;
37701;SDS011;23548;51.196;6.838;2023-05-06T01:59:09;269.27;;;47.95;;
37701;SDS011;23548;51.196;6.838;2023-05-06T02:01:35;300.42;;;48.85;;
37701;SDS011;23548;51.196;6.838;2023-05-06T02:04:00;303.98;;;51.30;;
37701;SDS011;23548;51.196;6.838;2023-05-06T02:06:27;287.67;;;50.03;;
37701;SDS011;23548;51.196;6.838;2023-05-06T02:08:53;225.85;;;50.08;;
37701;SDS011;23548;51.196;6.838;2023-05-06T02:11:18;407.27;;;55.40;;
37701;SDS011;23548;51.196;6.838;2023-05-06T02:13:44;166.90;;;45.92;;
37701;SDS011;23548;51.196;6.838;2023-05-06T02:16:10;178.63;;;46.15;;
37701;SDS011;23548;51.196;6.838;2023-05-06T02:18:36;145.82;;;43.65;;
37701;SDS011;23548;51.196;6.838;2023-05-06T02:21:02;130.25;;;44.88;;
37701;SDS011;23548;51.196;6.838;2023-05-06T02:23:28;116.47;;;42.70;;
37701;SDS011;23548;51.196;6.838;2023-05-06T02:25:54;122.20;;;43.45;;
37701;SDS011;23548;51.196;6.838;2023-05-06T02:28:22;111.78;;;43.33;;
37701;SDS011;23548;51.196;6.838;2023-05-06T02:30:48;111.43;;;41.65;;
37701;SDS011;23548;51.196;6.838;2023-05-06T02:33:14;105.97;;;42.88;;
37701;SDS011;23548;51.196;6.838;2023-05-06T02:35:40;103.10;;;40.08;;
37701;SDS011;23548;51.196;6.838;2023-05-06T02:38:06;98.53;;;38.33;;
37701;SDS011;23548;51.196;6.838;2023-05-06T02:40:32;89.15;;;37.03;;
37701;SDS011;23548;51.196;6.838;2023-05-06T02:42:59;89.18;;;37.17;;
37701;SDS011;23548;51.196;6.838;2023-05-06T02:45:25;95.85;;;36.47;;
37701;SDS011;23548;51.196;6.838;2023-05-06T02:47:51;95.43;;;37.10;;
37701;SDS011;23548;51.196;6.838;2023-05-06T02:50:17;108.22;;;40.03;;
37701;SDS011;23548;51.196;6.838;2023-05-06T02:52:43;105.55;;;39.42;;
37701;SDS011;23548;51.196;6.838;2023-05-06T02:55:09;107.45;;;40.25;;
37701;SDS011;23548;51.196;6.838;2023-05-06T02:57:35;102.18;;;39.78;;
37701;SDS011;23548;51.196;6.838;2023-05-06T03:00:01;110.95;;;39.72;;
37701;SDS011;23548;51.196;6.838;2023-05-06T03:02:27;119.28;;;40.97;;
37701;SDS011;23548;51.196;6.838;2023-05-06T03:04:53;111.65;;;40.85;;
37701;SDS011;23548;51.196;6.838;2023-05-06T03:07:19;128.88;;;41.30;;
37701;SDS011;23548;51.196;6.838;2023-05-06T03:09:44;115.75;;;40.92;;
37701;SDS011;23548;51.196;6.838;2023-05-06T03:12:10;106.07;;;38.25;;
37701;SDS011;23548;51.196;6.838;2023-05-06T03:14:36;106.57;;;38.35;;
37701;SDS011;23548;51.196;6.838;2023-05-06T03:17:02;123.10;;;38.33;;
37701;SDS011;23548;51.196;6.838;2023-05-06T03:19:27;209.30;;;41.80;;
37701;SDS011;23548;51.196;6.838;2023-05-06T03:21:53;105.32;;;37.78;;
37701;SDS011;23548;51.196;6.838;2023-05-06T03:24:19;107.90;;;34.95;;
37701;SDS011;23548;51.196;6.838;2023-05-06T03:26:45;110.13;;;35.92;;
37701;SDS011;23548;51.196;6.838;2023-05-06T03:29:11;165.10;;;37.30;;
37701;SDS011;23548;51.196;6.838;2023-05-06T03:31:36;155.20;;;36.28;;
37701;SDS011;23548;51.196;6.838;2023-05-06T03:34:03;127.40;;;34.05;;
37701;SDS011;23548;51.196;6.838;2023-05-06T03:36:28;207.40;;;34.22;;
37701;SDS011;23548;51.196;6.838;2023-05-06T03:38:55;104.43;;;32.45;;
37701;SDS011;23548;51.196;6.838;2023-05-06T03:41:21;232.05;;;36.90;;
37701;SDS011;23548;51.196;6.838;2023-05-06T03:43:48;116.30;;;31.33;;
37701;SDS011;23548;51.196;6.838;2023-05-06T03:46:14;210.13;;;35.78;;
37701;SDS011;23548;51.196;6.838;2023-05-06T03:48:40;104.55;;;31.65;;
37701;SDS011;23548;51.196;6.838;2023-05-06T03:51:06;107.63;;;29.75;;
37701;SDS011;23548;51.196;6.838;2023-05-06T03:53:32;101.60;;;30.40;;
37701;SDS011;23548;51.196;6.838;2023-05-06T03:55:57;80.32;;;29.73;;
37701;SDS011;23548;51.196;6.838;2023-05-06T03:58:26;115.05;;;31.02;;
37701;SDS011;23548;51.196;6.838;2023-05-06T04:00:52;107.25;;;32.30;;
37701;SDS011;23548;51.196;6.838;2023-05-06T04:03:17;85.25;;;30.92;;
37701;SDS011;23548;51.196;6.838;2023-05-06T04:05:44;66.95;;;29.05;;
37701;SDS011;23548;51.196;6.838;2023-05-06T04:08:11;145.80;;;31.98;;
37701;SDS011;23548;51.196;6.838;2023-05-06T04:10:39;69.80;;;29.75;;
37701;SDS011;23548;51.196;6.838;2023-05-06T04:13:05;64.88;;;28.27;;
37701;SDS011;23548;51.196;6.838;2023-05-06T04:15:31;62.33;;;30.70;;
37701;SDS011;23548;51.196;6.838;2023-05-06T04:17:58;74.10;;;30.63;;
37701;SDS011;23548;51.196;6.838;2023-05-06T04:20:24;69.30;;;30.75;;
37701;SDS011;23548;51.196;6.838;2023-05-06T04:22:50;69.45;;;30.30;;
37701;SDS011;23548;51.196;6.838;2023-05-06T04:25:16;61.97;;;29.40;;
37701;SDS011;23548;51.196;6.838;2023-05-06T04:27:45;60.08;;;28.30;;
37701;SDS011;23548;51.196;6.838;2023-05-06T04:30:11;61.20;;;28.38;;
37701;SDS011;23548;51.196;6.838;2023-05-06T04:32:37;61.17;;;28.98;;
37701;SDS011;23548;51.196;6.838;2023-05-06T04:35:03;64.05;;;28.90;;
37701;SDS011;23548;51.196;6.838;2023-05-06T04:37:29;56.63;;;28.27;;
37701;SDS011;23548;51.196;6.838;2023-05-06T04:39:55;50.70;;;25.60;;
37701;SDS011;23548;51.196;6.838;2023-05-06T04:42:21;62.10;;;25.25;;
37701;SDS011;23548;51.196;6.838;2023-05-06T04:44:47;51.10;;;25.58;;
37701;SDS011;23548;51.196;6.838;2023-05-06T04:47:13;52.75;;;27.33;;
37701;SDS011;23548;51.196;6.838;2023-05-06T04:49:40;58.25;;;27.95;;
37701;SDS011;23548;51.196;6.838;2023-05-06T04:52:06;56.58;;;26.98;;
37701;SDS011;23548;51.196;6.838;2023-05-06T04:54:32;62.78;;;30.50;;
37701;SDS011;23548;51.196;6.838;2023-05-06T04:56:58;58.70;;;27.70;;
37701;SDS011;23548;51.196;6.838;2023-05-06T04:59:23;63.13;;;29.67;;
37701;SDS011;23548;51.196;6.838;2023-05-06T05:01:49;66.03;;;30.77;;
37701;SDS011;23548;51.196;6.838;2023-05-06T05:04:15;65.25;;;29.88;;
37701;SDS011;23548;51.196;6.838;2023-05-06T05:06:41;73.00;;;32.35;;
37701;SDS011;23548;51.196;6.838;2023-05-06T05:09:06;72.40;;;31.80;;
37701;SDS011;23548;51.196;6.838;2023-05-06T05:11:35;65.00;;;30.17;;
37701;SDS011;23548;51.196;6.838;2023-05-06T05:14:02;62.42;;;29.90;;
37701;SDS011;23548;51.196;6.838;2023-05-06T05:16:28;63.58;;;29.88;;
37701;SDS011;23548;51.196;6.838;2023-05-06T05:18:53;56.38;;;27.50;;
37701;SDS011;23548;51.196;6.838;2023-05-06T05:21:19;54.72;;;27.48;;
37701;SDS011;23548;51.196;6.838;2023-05-06T05:23:45;54.05;;;28.13;;
37701;SDS011;23548;51.196;6.838;2023-05-06T05:26:11;48.60;;;26.25;;
37701;SDS011;23548;51.196;6.838;2023-05-06T05:28:37;52.97;;;28.08;;
37701;SDS011;23548;51.196;6.838;2023-05-06T05:31:03;51.70;;;27.95;;
37701;SDS011;23548;51.196;6.838;2023-05-06T05:33:29;48.42;;;28.25;;
37701;SDS011;23548;51.196;6.838;2023-05-06T05:35:55;54.95;;;28.98;;
37701;SDS011;23548;51.196;6.838;2023-05-06T05:38:22;52.67;;;28.55;;
37701;SDS011;23548;51.196;6.838;2023-05-06T05:40:48;49.60;;;29.30;;
37701;SDS011;23548;51.196;6.838;2023-05-06T05:43:14;51.60;;;29.65;;
37701;SDS011;23548;51.196;6.838;2023-05-06T05:45:39;48.65;;;28.08;;
37701;SDS011;23548;51.196;6.838;2023-05-06T05:48:05;44.05;;;27.23;;
37701;SDS011;23548;51.196;6.838;2023-05-06T05:50:31;49.20;;;28.20;;
37701;SDS011;23548;51.196;6.838;2023-05-06T05:52:57;44.88;;;27.83;;
37701;SDS011;23548;51.196;6.838;2023-05-06T05:55:23;41.20;;;26.83;;
37701;SDS011;23548;51.196;6.838;2023-05-06T05:57:49;43.95;;;28.23;;
37701;SDS011;23548;51.196;6.838;2023-05-06T06:00:15;42.25;;;26.58;;
37701;SDS011;23548;51.196;6.838;2023-05-06T06:02:41;42.30;;;26.75;;
37701;SDS011;23548;51.196;6.838;2023-05-06T06:05:08;36.90;;;25.92;;
37701;SDS011;23548;51.196;6.838;2023-05-06T06:07:34;39.58;;;26.00;;
37701;SDS011;23548;51.196;6.838;2023-05-06T06:10:01;43.97;;;27.48;;
37701;SDS011;23548;51.196;6.838;2023-05-06T06:12:27;40.85;;;28.45;;
37701;SDS011;23548;51.196;6.838;2023-05-06T06:14:53;42.13;;;28.35;;
37701;SDS011;23548;51.196;6.838;2023-05-06T06:17:18;38.95;;;27.73;;
37701;SDS011;23548;51.196;6.838;2023-05-06T06:19:44;44.10;;;29.77;;
37701;SDS011;23548;51.196;6.838;2023-05-06T06:22:11;41.65;;;27.60;;
37701;SDS011;23548;51.196;6.838;2023-05-06T06:24:37;43.10;;;27.08;;
37701;SDS011;23548;51.196;6.838;2023-05-06T06:27:03;35.97;;;26.00;;
37701;SDS011;23548;51.196;6.838;2023-05-06T06:29:29;36.50;;;24.17;;
37701;SDS011;23548;51.196;6.838;2023-05-06T06:31:55;34.67;;;24.55;;
37701;SDS011;23548;51.196;6.838;2023-05-06T06:34:22;35.35;;;25.92;;
37701;SDS011;23548;51.196;6.838;2023-05-06T06:36:48;40.42;;;26.40;;
37701;SDS011;23548;51.196;6.838;2023-05-06T06:39:14;36.72;;;25.77;;
37701;SDS011;23548;51.196;6.838;2023-05-06T06:41:40;35.75;;;25.67;;
37701;SDS011;23548;51.196;6.838;2023-05-06T06:44:06;36.97;;;26.25;;
37701;SDS011;23548;51.196;6.838;2023-05-06T06:46:32;36.67;;;25.45;;
37701;SDS011;23548;51.196;6.838;2023-05-06T06:48:58;35.88;;;25.75;;
37701;SDS011;23548;51.196;6.838;2023-05-06T06:51:25;38.90;;;24.45;;
37701;SDS011;23548;51.196;6.838;2023-05-06T06:53:52;29.33;;;21.90;;
37701;SDS011;23548;51.196;6.838;2023-05-06T06:56:17;30.02;;;21.27;;
37701;SDS011;23548;51.196;6.838;2023-05-06T06:58:43;29.70;;;20.85;;
37701;SDS011;23548;51.196;6.838;2023-05-06T07:01:09;29.33;;;21.83;;
37701;SDS011;23548;51.196;6.838;2023-05-06T07:03:35;26.90;;;20.65;;
37701;SDS011;23548;51.196;6.838;2023-05-06T07:06:01;29.13;;;21.42;;
37701;SDS011;23548;51.196;6.838;2023-05-06T07:08:26;29.88;;;20.65;;
37701;SDS011;23548;51.196;6.838;2023-05-06T07:10:53;29.75;;;21.10;;
37701;SDS011;23548;51.196;6.838;2023-05-06T07:13:19;27.38;;;20.58;;
37701;SDS011;23548;51.196;6.838;2023-05-06T07:15:47;34.67;;;21.35;;
37701;SDS011;23548;51.196;6.838;2023-05-06T07:18:14;24.58;;;19.10;;
37701;SDS011;23548;51.196;6.838;2023-05-06T07:20:39;28.02;;;19.15;;
37701;SDS011;23548;51.196;6.838;2023-05-06T07:23:05;28.00;;;17.90;;
37701;SDS011;23548;51.196;6.838;2023-05-06T07:25:31;33.55;;;18.63;;
37701;SDS011;23548;51.196;6.838;2023-05-06T07:27:57;26.67;;;16.85;;
37701;SDS011;23548;51.196;6.838;2023-05-06T07:30:23;19.13;;;15.95;;
37701;SDS011;23548;51.196;6.838;2023-05-06T07:32:49;24.83;;;16.70;;
37701;SDS011;23548;51.196;6.838;2023-05-06T07:35:15;23.35;;;15.88;;
37701;SDS011;23548;51.196;6.838;2023-05-06T07:37:40;21.55;;;16.58;;
37701;SDS011;23548;51.196;6.838;2023-05-06T07:40:06;17.88;;;14.38;;
37701;SDS011;23548;51.196;6.838;2023-05-06T07:42:33;24.33;;;16.70;;
37701;SDS011;23548;51.196;6.838;2023-05-06T07:44:59;30.33;;;17.63;;
37701;SDS011;23548;51.196;6.838;2023-05-06T07:47:28;29.50;;;18.77;;
37701;SDS011;23548;51.196;6.838;2023-05-06T07:49:55;47.88;;;28.60;;
37701;SDS011;23548;51.196;6.838;2023-05-06T07:52:22;49.90;;;27.40;;
37701;SDS011;23548;51.196;6.838;2023-05-06T07:54:48;52.13;;;30.63;;
37701;SDS011;23548;51.196;6.838;2023-05-06T07:57:14;46.70;;;28.55;;
37701;SDS011;23548;51.196;6.838;2023-05-06T07:59:41;23.42;;;15.55;;
37701;SDS011;23548;51.196;6.838;2023-05-06T08:02:08;16.08;;;11.15;;
37701;SDS011;23548;51.196;6.838;2023-05-06T08:04:34;9.40;;;7.43;;
37701;SDS011;23548;51.196;6.838;2023-05-06T08:07:00;10.50;;;7.35;;
37701;SDS011;23548;51.196;6.838;2023-05-06T08:09:26;11.10;;;7.03;;
37701;SDS011;23548;51.196;6.838;2023-05-06T08:11:51;8.35;;;6.85;;
37701;SDS011;23548;51.196;6.838;2023-05-06T08:14:17;9.10;;;6.90;;
37701;SDS011;23548;51.196;6.838;2023-05-06T08:16:43;7.13;;;5.47;;
37701;SDS011;23548;51.196;6.838;2023-05-06T08:19:09;10.07;;;6.57;;
37701;SDS011;23548;51.196;6.838;2023-05-06T08:21:35;9.25;;;8.25;;
37701;SDS011;23548;51.196;6.838;2023-05-06T08:24:00;10.40;;;8.85;;
37701;SDS011;23548;51.196;6.838;2023-05-06T08:26:26;10.35;;;8.40;;
37701;SDS011;23548;51.196;6.838;2023-05-06T08:28:52;12.05;;;8.80;;
37701;SDS011;23548;51.196;6.838;2023-05-06T08:31:20;10.40;;;8.90;;
37701;SDS011;23548;51.196;6.838;2023-05-06T08:33:46;10.95;;;9.70;;
37701;SDS011;23548;51.196;6.838;2023-05-06T08:36:12;14.40;;;11.38;;
37701;SDS011;23548;51.196;6.838;2023-05-06T08:38:47;15.90;;;12.32;;
37701;SDS011;23548;51.196;6.838;2023-05-06T08:41:18;13.95;;;11.18;;
37701;SDS011;23548;51.196;6.838;2023-05-06T08:43:46;15.00;;;11.57;;
37701;SDS011;23548;51.196;6.838;2023-05-06T08:46:13;18.90;;;11.63;;
37701;SDS011;23548;51.196;6.838;2023-05-06T08:48:39;16.00;;;14.32;;
37701;SDS011;23548;51.196;6.838;2023-05-06T08:51:05;14.27;;;12.30;;
37701;SDS011;23548;51.196;6.838;2023-05-06T08:53:32;14.40;;;10.13;;
37701;SDS011;23548;51.196;6.838;2023-05-06T08:56:00;21.60;;;16.75;;
37701;SDS011;23548;51.196;6.838;2023-05-06T08:58:34;13.60;;;11.55;;
37701;SDS011;23548;51.196;6.838;2023-05-06T09:01:03;16.67;;;12.63;;
37701;SDS011;23548;51.196;6.838;2023-05-06T09:03:29;13.23;;;11.63;;
37701;SDS011;23548;51.196;6.838;2023-05-06T09:05:58;10.48;;;8.85;;
37701;SDS011;23548;51.196;6.838;2023-05-06T09:08:24;14.13;;;10.82;;
37701;SDS011;23548;51.196;6.838;2023-05-06T09:10:50;11.98;;;9.50;;
37701;SDS011;23548;51.196;6.838;2023-05-06T09:13:17;12.02;;;9.25;;
37701;SDS011;23548;51.196;6.838;2023-05-06T09:15:44;12.52;;;8.57;;
37701;SDS011;23548;51.196;6.838;2023-05-06T09:18:11;11.32;;;8.50;;
37701;SDS011;23548;51.196;6.838;2023-05-06T09:20:42;8.43;;;6.60;;
37701;SDS011;23548;51.196;6.838;2023-05-06T09:23:10;10.32;;;7.20;;
37701;SDS011;23548;51.196;6.838;2023-05-06T09:25:37;8.52;;;5.53;;
37701;SDS011;23548;51.196;6.838;2023-05-06T09:28:07;8.13;;;6.25;;
37701;SDS011;23548;51.196;6.838;2023-05-06T09:30:41;7.55;;;6.20;;
37701;SDS011;23548;51.196;6.838;2023-05-06T09:33:08;9.98;;;6.35;;
37701;SDS011;23548;51.196;6.838;2023-05-06T09:35:39;8.13;;;5.10;;
37701;SDS011;23548;51.196;6.838;2023-05-06T09:38:06;6.22;;;4.43;;
37701;SDS011;23548;51.196;6.838;2023-05-06T09:40:36;6.03;;;3.90;;
37701;SDS011;23548;51.196;6.838;2023-05-06T09:43:02;6.88;;;4.65;;
37701;SDS011;23548;51.196;6.838;2023-05-06T09:45:29;6.68;;;5.07;;
37701;SDS011;23548;51.196;6.838;2023-05-06T09:47:56;4.82;;;3.60;;
37701;SDS011;23548;51.196;6.838;2023-05-06T09:50:23;5.70;;;4.43;;
37701;SDS011;23548;51.196;6.838;2023-05-06T09:52:50;7.20;;;4.35;;
37701;SDS011;23548;51.196;6.838;2023-05-06T09:55:20;8.48;;;5.38;;
37701;SDS011;23548;51.196;6.838;2023-05-06T09:57:47;8.07;;;5.50;;
37701;SDS011;23548;51.196;6.838;2023-05-06T10:00:14;6.97;;;5.30;;
37701;SDS011;23548;51.196;6.838;2023-05-06T10:02:41;5.90;;;5.30;;
37701;SDS011;23548;51.196;6.838;2023-05-06T10:05:08;8.73;;;4.55;;
37701;SDS011;23548;51.196;6.838;2023-05-06T10:07:35;6.72;;;3.97;;
37701;SDS011;23548;51.196;6.838;2023-05-06T10:10:05;5.70;;;3.97;;
37701;SDS011;23548;51.196;6.838;2023-05-06T10:12:34;7.63;;;3.50;;
37701;SDS011;23548;51.196;6.838;2023-05-06T10:15:01;6.03;;;3.45;;
37701;SDS011;23548;51.196;6.838;2023-05-06T10:17:28;4.60;;;2.88;;
37701;SDS011;23548;51.196;6.838;2023-05-06T10:19:57;3.75;;;2.50;;
37701;SDS011;23548;51.196;6.838;2023-05-06T10:27:54;4.78;;;2.72;;
37701;SDS011;23548;51.196;6.838;2023-05-06T10:30:20;5.20;;;3.22;;
37701;SDS011;23548;51.196;6.838;2023-05-06T10:32:47;10.80;;;3.90;;
37701;SDS011;23548;51.196;6.838;2023-05-06T10:35:19;4.80;;;3.10;;
37701;SDS011;23548;51.196;6.838;2023-05-06T10:37:52;5.13;;;3.55;;
37701;SDS011;23548;51.196;6.838;2023-05-06T10:40:21;9.18;;;4.20;;
37701;SDS011;23548;51.196;6.838;2023-05-06T10:42:48;6.93;;;4.10;;
37701;SDS011;23548;51.196;6.838;2023-05-06T10:45:15;5.90;;;4.55;;
37701;SDS011;23548;51.196;6.838;2023-05-06T10:50:23;8.63;;;4.85;;
37701;SDS011;23548;51.196;6.838;2023-05-06T10:52:53;6.65;;;4.13;;
37701;SDS011;23548;51.196;6.838;2023-05-06T10:57:59;7.82;;;3.97;;
37701;SDS011;23548;51.196;6.838;2023-05-06T11:00:29;6.82;;;3.60;;
37701;SDS011;23548;51.196;6.838;2023-05-06T11:03:02;8.27;;;4.60;;
37701;SDS011;23548;51.196;6.838;2023-05-06T11:05:30;6.03;;;3.80;;
37701;SDS011;23548;51.196;6.838;2023-05-06T11:08:06;6.25;;;3.17;;
37701;SDS011;23548;51.196;6.838;2023-05-06T11:10:36;7.85;;;4.00;;
37701;SDS011;23548;51.196;6.838;2023-05-06T11:15:51;6.80;;;4.40;;
37701;SDS011;23548;51.196;6.838;2023-05-06T11:26:11;7.57;;;3.85;;
37701;SDS011;23548;51.196;6.838;2023-05-06T11:28:38;5.68;;;3.20;;
37701;SDS011;23548;51.196;6.838;2023-05-06T11:31:07;5.82;;;2.97;;
37701;SDS011;23548;51.196;6.838;2023-05-06T11:33:35;7.80;;;2.75;;
37701;SDS011;23548;51.196;6.838;2023-05-06T11:36:02;6.15;;;2.60;;
37701;SDS011;23548;51.196;6.838;2023-05-06T11:38:47;3.80;;;1.17;;
37701;SDS011;23548;51.196;6.838;2023-05-06T11:41:15;3.78;;;1.80;;
37701;SDS011;23548;51.196;6.838;2023-05-06T11:43:50;4.22;;;2.45;;
37701;SDS011;23548;51.196;6.838;2023-05-06T11:46:17;6.25;;;2.72;;
37701;SDS011;23548;51.196;6.838;2023-05-06T11:48:44;4.00;;;2.85;;
37701;SDS011;23548;51.196;6.838;2023-05-06T11:51:10;4.75;;;3.00;;
37701;SDS011;23548;51.196;6.838;2023-05-06T11:53:35;5.18;;;2.78;;
37701;SDS011;23548;51.196;6.838;2023-05-06T11:56:02;3.90;;;2.40;;
37701;SDS011;23548;51.196;6.838;2023-05-06T11:58:31;3.80;;;2.42;;
37701;SDS011;23548;51.196;6.838;2023-05-06T12:01:00;4.82;;;2.30;;
37701;SDS011;23548;51.196;6.838;2023-05-06T12:03:28;4.57;;;2.60;;
37701;SDS011;23548;51.196;6.838;2023-05-06T12:05:55;3.38;;;2.45;;
37701;SDS011;23548;51.196;6.838;2023-05-06T12:08:21;4.68;;;2.80;;
37701;SDS011;23548;51.196;6.838;2023-05-06T12:10:52;5.10;;;2.67;;
37701;SDS011;23548;51.196;6.838;2023-05-06T12:13:20;3.33;;;2.42;;
37701;SDS011;23548;51.196;6.838;2023-05-06T12:15:46;4.18;;;3.00;;
37701;SDS011;23548;51.196;6.838;2023-05-06T12:18:13;5.00;;;2.80;;
37701;SDS011;23548;51.196;6.838;2023-05-06T12:20:40;7.18;;;2.90;;
37701;SDS011;23548;51.196;6.838;2023-05-06T12:23:13;5.65;;;2.70;;
37701;SDS011;23548;51.196;6.838;2023-05-06T12:25:40;5.38;;;2.47;;
37701;SDS011;23548;51.196;6.838;2023-05-06T12:28:17;2.63;;;2.40;;
37701;SDS011;23548;51.196;6.838;2023-05-06T12:30:44;3.33;;;2.30;;
37701;SDS011;23548;51.196;6.838;2023-05-06T12:33:10;4.05;;;2.78;;
37701;SDS011;23548;51.196;6.838;2023-05-06T12:35:38;4.45;;;2.70;;
37701;SDS011;23548;51.196;6.838;2023-05-06T12:38:08;4.95;;;2.75;;
37701;SDS011;23548;51.196;6.838;2023-05-06T12:40:42;6.60;;;2.60;;
37701;SDS011;23548;51.196;6.838;2023-05-06T12:43:09;4.75;;;2.40;;
37701;SDS011;23548;51.196;6.838;2023-05-06T12:45:36;4.60;;;2.33;;
37701;SDS011;23548;51.196;6.838;2023-05-06T12:48:02;3.88;;;2.78;;
37701;SDS011;23548;51.196;6.838;2023-05-06T12:52:58;3.95;;;2.15;;
37701;SDS011;23548;51.196;6.838;2023-05-06T12:55:24;4.72;;;2.10;;
37701;SDS011;23548;51.196;6.838;2023-05-06T12:57:50;6.20;;;2.20;;
37701;SDS011;23548;51.196;6.838;2023-05-06T13:00:16;4.28;;;2.10;;
37701;SDS011;23548;51.196;6.838;2023-05-06T13:02:43;4.85;;;1.88;;
37701;SDS011;23548;51.196;6.838;2023-05-06T13:05:10;5.28;;;2.10;;
37701;SDS011;23548;51.196;6.838;2023-05-06T13:07:35;5.25;;;2.00;;
37701;SDS011;23548;51.196;6.838;2023-05-06T13:10:01;6.28;;;2.00;;
37701;SDS011;23548;51.196;6.838;2023-05-06T13:12:30;3.35;;;1.60;;
37701;SDS011;23548;51.196;6.838;2023-05-06T13:14:56;3.90;;;1.55;;
37701;SDS011;23548;51.196;6.838;2023-05-06T13:17:23;2.72;;;2.05;;
37701;SDS011;23548;51.196;6.838;2023-05-06T13:19:49;4.07;;;1.77;;
37701;SDS011;23548;51.196;6.838;2023-05-06T13:22:15;4.50;;;1.70;;
37701;SDS011;23548;51.196;6.838;2023-05-06T13:24:41;6.50;;;2.22;;
37701;SDS011;23548;51.196;6.838;2023-05-06T13:27:07;2.83;;;1.80;;
37701;SDS011;23548;51.196;6.838;2023-05-06T13:29:33;2.88;;;1.90;;
37701;SDS011;23548;51.196;6.838;2023-05-06T13:31:59;4.72;;;2.05;;
37701;SDS011;23548;51.196;6.838;2023-05-06T13:34:25;5.13;;;1.80;;
37701;SDS011;23548;51.196;6.838;2023-05-06T13:36:52;6.55;;;1.77;;
37701;SDS011;23548;51.196;6.838;2023-05-06T13:39:19;3.60;;;1.90;;
37701;SDS011;23548;51.196;6.838;2023-05-06T13:41:46;2.50;;;1.52;;
37701;SDS011;23548;51.196;6.838;2023-05-06T13:44:14;11.88;;;7.20;;
37701;SDS011;23548;51.196;6.838;2023-05-06T13:46:41;4.38;;;2.65;;
37701;SDS011;23548;51.196;6.838;2023-05-06T13:49:06;4.80;;;1.33;;
37701;SDS011;23548;51.196;6.838;2023-05-06T13:51:32;3.42;;;1.60;;
37701;SDS011;23548;51.196;6.838;2023-05-06T13:53:59;3.00;;;1.60;;
37701;SDS011;23548;51.196;6.838;2023-05-06T13:56:25;3.15;;;1.73;;
37701;SDS011;23548;51.196;6.838;2023-05-06T13:58:51;2.85;;;1.50;;
37701;SDS011;23548;51.196;6.838;2023-05-06T14:01:20;5.15;;;2.03;;
37701;SDS011;23548;51.196;6.838;2023-05-06T14:03:46;5.45;;;1.70;;
37701;SDS011;23548;51.196;6.838;2023-05-06T14:06:12;6.60;;;1.80;;
37701;SDS011;23548;51.196;6.838;2023-05-06T14:08:38;4.07;;;1.30;;
37701;SDS011;23548;51.196;6.838;2023-05-06T14:11:05;3.67;;;1.50;;
37701;SDS011;23548;51.196;6.838;2023-05-06T14:13:31;4.15;;;1.50;;
37701;SDS011;23548;51.196;6.838;2023-05-06T14:15:58;3.83;;;1.67;;
37701;SDS011;23548;51.196;6.838;2023-05-06T14:18:26;4.07;;;1.50;;
37701;SDS011;23548;51.196;6.838;2023-05-06T14:20:53;3.88;;;1.73;;
37701;SDS011;23548;51.196;6.838;2023-05-06T14:23:20;6.35;;;1.80;;
37701;SDS011;23548;51.196;6.838;2023-05-06T14:25:46;3.40;;;1.73;;
37701;SDS011;23548;51.196;6.838;2023-05-06T14:28:11;4.85;;;2.00;;
37701;SDS011;23548;51.196;6.838;2023-05-06T14:30:38;3.22;;;1.95;;
37701;SDS011;23548;51.196;6.838;2023-05-06T14:33:04;3.65;;;1.65;;
37701;SDS011;23548;51.196;6.838;2023-05-06T14:35:30;3.55;;;2.72;;
37701;SDS011;23548;51.196;6.838;2023-05-06T14:37:56;5.85;;;2.65;;
37701;SDS011;23548;51.196;6.838;2023-05-06T14:40:22;5.28;;;1.95;;
37701;SDS011;23548;51.196;6.838;2023-05-06T14:42:48;4.50;;;1.80;;
37701;SDS011;23548;51.196;6.838;2023-05-06T14:45:14;5.95;;;2.58;;
37701;SDS011;23548;51.196;6.838;2023-05-06T14:47:41;5.55;;;3.25;;
37701;SDS011;23548;51.196;6.838;2023-05-06T14:50:07;8.55;;;2.38;;
37701;SDS011;23548;51.196;6.838;2023-05-06T14:52:38;7.57;;;2.20;;